Atlanticbeach, North Carolina
Current Conditions -  °F | °C
As of 5:58 PM on Saturday 25 Oct 2014 (Local Time) from KMRH Reporting Station
Clear Clear  
Wind Chill: 66°   Ceiling: Unl
Heat Index: 66°   Visibility: 10mi
Dew Point: 50°   Wind: 8mph
Humidity: 56%   Direction: 230°SW
Pressure: 29.89"   Gusts: NA
Location:  34.6984°N, 76.7775°W
Report Text: KMRH 252158Z AUTO 23007KT 10SM CLR 19/10 A2989 RMK AO2 SLP122 T01890100 TSNO
Loading
Personal Weather Stations






























Interactive Weather Map
Tropical Storm Tracking
New forecast layout! Learn more

10-Day Weather Forecast

Advertisements
Track Severe Weather on mobile